sensor_id;sensor_type;location;lat;lon;timestamp;pressure;altitude;pressure_sealevel;temperature;humidity
48035;BME280;33812;46.480;6.834;2022-12-20T00:01:13;94295.38;;;21.79;33.46
48035;BME280;33812;46.480;6.834;2022-12-20T00:05:15;94286.25;;;21.79;33.84
48035;BME280;33812;46.480;6.834;2022-12-20T00:09:17;94287.84;;;21.80;33.89
48035;BME280;33812;46.480;6.834;2022-12-20T00:13:21;94286.63;;;21.81;33.80
48035;BME280;33812;46.480;6.834;2022-12-20T00:17:23;94293.00;;;21.78;33.78
48035;BME280;33812;46.480;6.834;2022-12-20T00:21:25;94278.38;;;21.77;33.92
48035;BME280;33812;46.480;6.834;2022-12-20T00:25:27;94276.41;;;21.78;33.82
48035;BME280;33812;46.480;6.834;2022-12-20T00:29:31;94270.09;;;21.77;34.03
48035;BME280;33812;46.480;6.834;2022-12-20T00:33:33;94265.34;;;21.78;33.85
48035;BME280;33812;46.480;6.834;2022-12-20T00:37:35;94262.97;;;21.80;33.85
48035;BME280;33812;46.480;6.834;2022-12-20T00:41:36;94255.91;;;21.75;33.78
48035;BME280;33812;46.480;6.834;2022-12-20T00:45:41;94255.91;;;21.75;33.93
48035;BME280;33812;46.480;6.834;2022-12-20T00:49:43;94249.25;;;21.72;33.63
48035;BME280;33812;46.480;6.834;2022-12-20T00:53:45;94250.81;;;21.73;33.76
48035;BME280;33812;46.480;6.834;2022-12-20T00:57:47;94250.47;;;21.71;33.83
48035;BME280;33812;46.480;6.834;2022-12-20T01:01:50;94254.34;;;21.74;33.51
48035;BME280;33812;46.480;6.834;2022-12-20T01:05:54;94227.47;;;21.74;33.97
48035;BME280;33812;46.480;6.834;2022-12-20T01:09:56;94225.56;;;21.71;33.63
48035;BME280;33812;46.480;6.834;2022-12-20T01:14:00;94220.38;;;21.73;33.66
48035;BME280;33812;46.480;6.834;2022-12-20T01:18:04;94216.94;;;21.69;33.71
48035;BME280;33812;46.480;6.834;2022-12-20T01:26:10;94227.19;;;21.69;33.79
48035;BME280;33812;46.480;6.834;2022-12-20T01:30:12;94225.56;;;21.71;33.83
48035;BME280;33812;46.480;6.834;2022-12-20T01:38:17;94243.81;;;21.69;33.54
48035;BME280;33812;46.480;6.834;2022-12-20T01:42:19;94243.81;;;21.69;33.47
48035;BME280;33812;46.480;6.834;2022-12-20T01:46:22;94237.06;;;21.70;33.67
48035;BME280;33812;46.480;6.834;2022-12-20T01:50:27;94241.03;;;21.69;33.47
48035;BME280;33812;46.480;6.834;2022-12-20T01:54:32;94235.50;;;21.69;33.64
48035;BME280;33812;46.480;6.834;2022-12-20T01:58:38;94233.88;;;21.71;33.56
48035;BME280;33812;46.480;6.834;2022-12-20T02:02:41;94228.44;;;21.68;33.56
48035;BME280;33812;46.480;6.834;2022-12-20T02:06:44;94228.84;;;21.66;33.31
48035;BME280;33812;46.480;6.834;2022-12-20T02:10:58;94222.19;;;21.64;33.51
48035;BME280;33812;46.480;6.834;2022-12-20T02:15:16;94222.19;;;21.64;33.39
48035;BME280;33812;46.480;6.834;2022-12-20T02:19:44;94225.31;;;21.66;33.60
48035;BME280;33812;46.480;6.834;2022-12-20T02:24:21;94225.75;;;21.64;33.47
48035;BME280;33812;46.480;6.834;2022-12-20T02:28:42;94217.44;;;21.64;33.38
48035;BME280;33812;46.480;6.834;2022-12-20T02:32:56;94210.34;;;21.63;33.47
48035;BME280;33812;46.480;6.834;2022-12-20T02:37:02;94213.88;;;21.64;33.34
48035;BME280;33812;46.480;6.834;2022-12-20T02:41:06;94192.63;;;21.60;33.27
48035;BME280;33812;46.480;6.834;2022-12-20T02:45:10;94192.63;;;21.60;33.19
48035;BME280;33812;46.480;6.834;2022-12-20T02:49:28;94191.31;;;21.65;33.21
48035;BME280;33812;46.480;6.834;2022-12-20T02:53:32;94186.31;;;21.60;33.39
48035;BME280;33812;46.480;6.834;2022-12-20T02:57:41;94178.38;;;21.62;33.37
48035;BME280;33812;46.480;6.834;2022-12-20T03:01:48;94178.38;;;21.62;33.32
48035;BME280;33812;46.480;6.834;2022-12-20T03:05:54;94189.78;;;21.64;33.42
48035;BME280;33812;46.480;6.834;2022-12-20T03:09:55;94176.38;;;21.62;33.40
48035;BME280;33812;46.480;6.834;2022-12-20T03:13:57;94164.19;;;21.60;33.16
48035;BME280;33812;46.480;6.834;2022-12-20T03:17:59;94170.06;;;21.62;33.37
48035;BME280;33812;46.480;6.834;2022-12-20T03:22:03;94161.06;;;21.58;33.33
48035;BME280;33812;46.480;6.834;2022-12-20T03:26:05;94160.22;;;21.61;33.48
48035;BME280;33812;46.480;6.834;2022-12-20T03:30:08;94157.88;;;21.59;33.64
48035;BME280;33812;46.480;6.834;2022-12-20T03:34:10;94150.34;;;21.60;33.40
48035;BME280;33812;46.480;6.834;2022-12-20T03:38:13;94154.00;;;21.57;33.32
48035;BME280;33812;46.480;6.834;2022-12-20T03:42:15;94164.63;;;21.58;33.06
48035;BME280;33812;46.480;6.834;2022-12-20T03:46:17;94159.88;;;21.59;32.98
48035;BME280;33812;46.480;6.834;2022-12-20T03:50:19;94170.50;;;21.60;33.14
48035;BME280;33812;46.480;6.834;2022-12-20T03:54:22;94167.81;;;21.57;33.21
48035;BME280;33812;46.480;6.834;2022-12-20T03:58:25;94163.84;;;21.58;33.11
48035;BME280;33812;46.480;6.834;2022-12-20T04:02:27;94172.56;;;21.56;33.09
48035;BME280;33812;46.480;6.834;2022-12-20T04:06:29;94173.69;;;21.59;33.18
48035;BME280;33812;46.480;6.834;2022-12-20T04:10:33;94182.75;;;21.59;33.10
48035;BME280;33812;46.480;6.834;2022-12-20T04:14:54;94184.06;;;21.55;32.92
48035;BME280;33812;46.480;6.834;2022-12-20T04:18:56;94178.88;;;21.57;33.00
48035;BME280;33812;46.480;6.834;2022-12-20T04:23:03;94183.97;;;21.58;33.27
48035;BME280;33812;46.480;6.834;2022-12-20T04:27:06;94173.34;;;21.57;33.33
48035;BME280;33812;46.480;6.834;2022-12-20T04:31:09;94178.53;;;21.55;32.95
48035;BME280;33812;46.480;6.834;2022-12-20T04:35:12;94180.50;;;21.54;33.23
48035;BME280;33812;46.480;6.834;2022-12-20T04:39:14;94169.38;;;21.58;33.03
48035;BME280;33812;46.480;6.834;2022-12-20T04:43:18;94156.75;;;21.57;33.05
48035;BME280;33812;46.480;6.834;2022-12-20T04:47:20;94171.00;;;21.55;33.37
48035;BME280;33812;46.480;6.834;2022-12-20T04:51:22;94169.00;;;21.56;33.37
48035;BME280;33812;46.480;6.834;2022-12-20T04:55:23;94165.06;;;21.57;33.13
48035;BME280;33812;46.480;6.834;2022-12-20T04:59:26;94163.91;;;21.54;33.28
48035;BME280;33812;46.480;6.834;2022-12-20T05:03:28;94166.25;;;21.56;33.12
48035;BME280;33812;46.480;6.834;2022-12-20T05:07:30;94159.16;;;21.55;32.91
48035;BME280;33812;46.480;6.834;2022-12-20T05:11:32;94158.06;;;21.52;33.27
48035;BME280;33812;46.480;6.834;2022-12-20T05:15:35;94161.50;;;21.56;33.11
48035;BME280;33812;46.480;6.834;2022-12-20T05:19:37;94166.59;;;21.58;32.94
48035;BME280;33812;46.480;6.834;2022-12-20T05:23:39;94155.88;;;21.60;32.96
48035;BME280;33812;46.480;6.834;2022-12-20T05:27:58;94161.50;;;21.56;32.92
48035;BME280;33812;46.480;6.834;2022-12-20T05:32:01;94153.56;;;21.58;33.19
48035;BME280;33812;46.480;6.834;2022-12-20T05:36:03;94150.88;;;21.55;32.80
48035;BME280;33812;46.480;6.834;2022-12-20T05:40:06;94148.19;;;21.51;32.97
48035;BME280;33812;46.480;6.834;2022-12-20T05:44:08;94152.41;;;21.56;32.85
48035;BME280;33812;46.480;6.834;2022-12-20T05:48:11;94140.59;;;21.55;32.58
48035;BME280;33812;46.480;6.834;2022-12-20T05:52:13;94136.25;;;21.54;32.66
48035;BME280;33812;46.480;6.834;2022-12-20T05:56:15;94142.22;;;21.53;32.50
48035;BME280;33812;46.480;6.834;2022-12-20T06:00:17;94149.31;;;21.54;32.35
48035;BME280;33812;46.480;6.834;2022-12-20T06:04:20;94150.53;;;21.53;32.60
48035;BME280;33812;46.480;6.834;2022-12-20T06:08:22;94152.09;;;21.54;32.39
48035;BME280;33812;46.480;6.834;2022-12-20T06:12:26;94154.50;;;21.52;32.50
48035;BME280;33812;46.480;6.834;2022-12-20T06:16:28;94154.50;;;21.52;32.53
48035;BME280;33812;46.480;6.834;2022-12-20T06:20:33;94140.69;;;21.52;32.95
48035;BME280;33812;46.480;6.834;2022-12-20T06:24:36;94135.59;;;21.50;32.52
48035;BME280;33812;46.480;6.834;2022-12-20T06:28:38;94138.34;;;21.50;32.39
48035;BME280;33812;46.480;6.834;2022-12-20T06:32:43;94126.78;;;21.55;33.00
48035;BME280;33812;46.480;6.834;2022-12-20T06:36:47;94137.41;;;21.57;33.40
48035;BME280;33812;46.480;6.834;2022-12-20T06:40:49;94125.13;;;21.58;33.44
48035;BME280;33812;46.480;6.834;2022-12-20T06:44:51;94118.22;;;21.66;33.65
48035;BME280;33812;46.480;6.834;2022-12-20T06:48:54;94111.47;;;21.67;33.84
48035;BME280;33812;46.480;6.834;2022-12-20T06:52:58;94114.06;;;21.74;34.06
48035;BME280;33812;46.480;6.834;2022-12-20T06:56:59;94101.41;;;21.73;34.11
48035;BME280;33812;46.480;6.834;2022-12-20T07:01:01;94094.69;;;21.74;34.14
48035;BME280;33812;46.480;6.834;2022-12-20T07:05:03;94093.91;;;21.74;34.26
48035;BME280;33812;46.480;6.834;2022-12-20T07:09:07;94097.91;;;21.73;34.72
48035;BME280;33812;46.480;6.834;2022-12-20T07:13:08;94087.94;;;21.76;35.50
48035;BME280;33812;46.480;6.834;2022-12-20T07:17:10;94099.53;;;21.70;35.00
48035;BME280;33812;46.480;6.834;2022-12-20T07:21:12;94093.22;;;21.70;35.03
48035;BME280;33812;46.480;6.834;2022-12-20T07:25:18;94095.97;;;21.70;35.15
48035;BME280;33812;46.480;6.834;2022-12-20T07:29:19;94104.19;;;21.73;35.11
48035;BME280;33812;46.480;6.834;2022-12-20T07:33:21;94121.66;;;21.70;35.34
48035;BME280;33812;46.480;6.834;2022-12-20T07:37:24;94109.19;;;21.79;36.71
48035;BME280;33812;46.480;6.834;2022-12-20T07:41:27;94120.78;;;21.73;35.65
48035;BME280;33812;46.480;6.834;2022-12-20T07:45:28;94135.84;;;21.72;35.80
48035;BME280;33812;46.480;6.834;2022-12-20T07:49:30;94138.16;;;21.74;36.06
48035;BME280;33812;46.480;6.834;2022-12-20T07:53:34;94133.25;;;21.65;35.18
48035;BME280;33812;46.480;6.834;2022-12-20T07:57:41;94145.09;;;21.66;34.77
48035;BME280;33812;46.480;6.834;2022-12-20T08:01:45;94133.56;;;21.50;35.30
48035;BME280;33812;46.480;6.834;2022-12-20T08:05:50;94132.03;;;21.66;35.79
48035;BME280;33812;46.480;6.834;2022-12-20T08:09:54;94135.38;;;20.66;31.57
48035;BME280;33812;46.480;6.834;2022-12-20T08:13:57;94139.53;;;21.49;35.88
48035;BME280;33812;46.480;6.834;2022-12-20T08:17:59;94143.09;;;21.66;35.32
48035;BME280;33812;46.480;6.834;2022-12-20T08:22:01;94158.50;;;21.67;35.13
48035;BME280;33812;46.480;6.834;2022-12-20T08:26:03;94165.66;;;21.65;34.93
48035;BME280;33812;46.480;6.834;2022-12-20T08:30:08;94159.28;;;21.68;35.40
48035;BME280;33812;46.480;6.834;2022-12-20T08:34:10;94142.25;;;21.69;35.43
48035;BME280;33812;46.480;6.834;2022-12-20T08:38:12;94140.34;;;21.66;35.17
48035;BME280;33812;46.480;6.834;2022-12-20T08:42:13;94137.56;;;21.66;35.38
48035;BME280;33812;46.480;6.834;2022-12-20T08:46:17;94130.81;;;21.67;35.19
48035;BME280;33812;46.480;6.834;2022-12-20T08:50:21;94125.66;;;21.69;35.13
48035;BME280;33812;46.480;6.834;2022-12-20T08:54:23;94123.22;;;21.71;35.41
48035;BME280;33812;46.480;6.834;2022-12-20T08:58:29;94113.72;;;21.72;35.69
48035;BME280;33812;46.480;6.834;2022-12-20T09:02:33;94100.56;;;21.77;35.60
48035;BME280;33812;46.480;6.834;2022-12-20T09:06:38;94102.56;;;21.76;35.43
48035;BME280;33812;46.480;6.834;2022-12-20T09:10:40;94089.00;;;21.82;35.38
48035;BME280;33812;46.480;6.834;2022-12-20T09:14:42;94060.91;;;21.83;35.23
48035;BME280;33812;46.480;6.834;2022-12-20T09:18:49;94024.25;;;21.79;35.26
48035;BME280;33812;46.480;6.834;2022-12-20T09:22:50;94017.13;;;21.78;35.34
48035;BME280;33812;46.480;6.834;2022-12-20T09:26:52;94006.75;;;21.82;35.06
48035;BME280;33812;46.480;6.834;2022-12-20T09:30:58;94025.78;;;21.80;35.12
48035;BME280;33812;46.480;6.834;2022-12-20T09:35:01;94042.38;;;21.80;34.96
48035;BME280;33812;46.480;6.834;2022-12-20T09:39:03;94068.91;;;21.78;34.73
48035;BME280;33812;46.480;6.834;2022-12-20T09:43:13;94068.56;;;21.76;34.25
48035;BME280;33812;46.480;6.834;2022-12-20T09:47:17;94067.69;;;21.79;34.72
48035;BME280;33812;46.480;6.834;2022-12-20T09:56:00;94076.72;;;21.83;35.13
48035;BME280;33812;46.480;6.834;2022-12-20T10:00:10;94067.53;;;21.86;35.09
48035;BME280;33812;46.480;6.834;2022-12-20T10:04:19;94074.31;;;21.85;35.03
48035;BME280;33812;46.480;6.834;2022-12-20T10:08:38;94080.19;;;21.87;35.48
48035;BME280;33812;46.480;6.834;2022-12-20T10:12:47;94071.13;;;22.00;37.72
48035;BME280;33812;46.480;6.834;2022-12-20T10:17:01;94073.59;;;21.97;38.32
48035;BME280;33812;46.480;6.834;2022-12-20T10:21:19;94069.25;;;21.96;38.22
48035;BME280;33812;46.480;6.834;2022-12-20T10:25:30;94053.88;;;21.95;37.91
48035;BME280;33812;46.480;6.834;2022-12-20T10:29:32;94053.88;;;21.95;37.73
48035;BME280;33812;46.480;6.834;2022-12-20T10:33:34;94049.88;;;21.96;37.56
48035;BME280;33812;46.480;6.834;2022-12-20T10:37:36;94028.88;;;21.99;37.41
48035;BME280;33812;46.480;6.834;2022-12-20T10:41:48;94038.16;;;22.05;37.43
48035;BME280;33812;46.480;6.834;2022-12-20T10:45:57;94018.16;;;22.14;36.94
48035;BME280;33812;46.480;6.834;2022-12-20T10:50:16;94009.31;;;22.19;37.20
48035;BME280;33812;46.480;6.834;2022-12-20T10:54:22;94023.44;;;22.08;37.35
48035;BME280;33812;46.480;6.834;2022-12-20T10:58:31;94013.84;;;22.13;36.91
48035;BME280;33812;46.480;6.834;2022-12-20T11:02:36;94005.66;;;22.09;36.64
48035;BME280;33812;46.480;6.834;2022-12-20T11:06:51;93990.63;;;22.24;37.96
48035;BME280;33812;46.480;6.834;2022-12-20T11:11:12;93991.97;;;22.32;37.52
48035;BME280;33812;46.480;6.834;2022-12-20T11:15:22;93991.75;;;22.39;37.93
48035;BME280;33812;46.480;6.834;2022-12-20T11:19:33;93981.88;;;22.38;38.11
48035;BME280;33812;46.480;6.834;2022-12-20T11:23:42;93964.16;;;22.49;38.29
48035;BME280;33812;46.480;6.834;2022-12-20T11:27:53;93960.63;;;22.48;38.71
48035;BME280;33812;46.480;6.834;2022-12-20T11:32:04;93958.22;;;22.50;38.98
48035;BME280;33812;46.480;6.834;2022-12-20T11:36:17;93961.09;;;22.46;39.15
48035;BME280;33812;46.480;6.834;2022-12-20T11:40:30;93956.63;;;22.49;39.58
48035;BME280;33812;46.480;6.834;2022-12-20T11:44:46;93953.44;;;22.51;39.35
48035;BME280;33812;46.480;6.834;2022-12-20T11:49:02;93968.06;;;22.51;39.59
48035;BME280;33812;46.480;6.834;2022-12-20T11:53:15;93970.81;;;22.51;39.91
48035;BME280;33812;46.480;6.834;2022-12-20T11:57:26;93950.22;;;22.52;39.97
48035;BME280;33812;46.480;6.834;2022-12-20T12:01:34;93936.69;;;22.54;39.44
48035;BME280;33812;46.480;6.834;2022-12-20T12:05:41;93935.16;;;22.53;39.62
48035;BME280;33812;46.480;6.834;2022-12-20T12:09:51;93933.16;;;22.54;39.54
48035;BME280;33812;46.480;6.834;2022-12-20T12:13:58;93933.81;;;22.58;38.91
48035;BME280;33812;46.480;6.834;2022-12-20T12:18:05;93931.94;;;22.55;39.42
48035;BME280;33812;46.480;6.834;2022-12-20T12:22:15;93934.25;;;22.56;39.21
48035;BME280;33812;46.480;6.834;2022-12-20T12:26:22;93912.22;;;22.53;39.58
48035;BME280;33812;46.480;6.834;2022-12-20T12:30:27;93912.56;;;22.55;39.72
48035;BME280;33812;46.480;6.834;2022-12-20T12:34:49;93905.34;;;22.57;39.58
48035;BME280;33812;46.480;6.834;2022-12-20T12:43:44;93881.44;;;22.64;39.55
48035;BME280;33812;46.480;6.834;2022-12-20T12:47:50;93885.31;;;22.66;39.38
48035;BME280;33812;46.480;6.834;2022-12-20T12:51:54;93861.16;;;22.67;39.84
48035;BME280;33812;46.480;6.834;2022-12-20T12:56:28;93858.38;;;22.54;39.21
48035;BME280;33812;46.480;6.834;2022-12-20T13:00:51;93856.81;;;22.53;37.91
48035;BME280;33812;46.480;6.834;2022-12-20T13:04:55;93858.28;;;22.44;37.85
48035;BME280;33812;46.480;6.834;2022-12-20T13:09:16;93856.41;;;22.41;38.07
48035;BME280;33812;46.480;6.834;2022-12-20T13:13:22;93856.84;;;22.40;37.73
48035;BME280;33812;46.480;6.834;2022-12-20T13:17:39;93877.31;;;22.29;38.11
48035;BME280;33812;46.480;6.834;2022-12-20T13:21:45;93855.63;;;22.28;37.99
48035;BME280;33812;46.480;6.834;2022-12-20T13:25:49;93869.47;;;22.28;37.81
48035;BME280;33812;46.480;6.834;2022-12-20T13:29:56;93858.84;;;22.26;37.60
48035;BME280;33812;46.480;6.834;2022-12-20T13:33:59;93852.22;;;22.24;37.44
48035;BME280;33812;46.480;6.834;2022-12-20T13:38:03;93856.97;;;22.23;37.03
48035;BME280;33812;46.480;6.834;2022-12-20T13:42:14;93862.50;;;22.23;37.09
48035;BME280;33812;46.480;6.834;2022-12-20T13:46:21;93858.19;;;22.22;37.03
48035;BME280;33812;46.480;6.834;2022-12-20T13:50:29;93875.25;;;22.20;36.95
48035;BME280;33812;46.480;6.834;2022-12-20T13:54:32;93853.22;;;22.17;37.06
48035;BME280;33812;46.480;6.834;2022-12-20T13:58:33;93859.19;;;22.15;37.01
48035;BME280;33812;46.480;6.834;2022-12-20T14:02:40;93873.03;;;22.15;36.77
48035;BME280;33812;46.480;6.834;2022-12-20T14:06:42;93845.34;;;22.15;36.89
48035;BME280;33812;46.480;6.834;2022-12-20T14:10:44;93854.06;;;22.14;36.77
48035;BME280;33812;46.480;6.834;2022-12-20T14:14:47;93848.66;;;22.10;36.86
48035;BME280;33812;46.480;6.834;2022-12-20T14:18:59;93839.13;;;22.11;36.70
48035;BME280;33812;46.480;6.834;2022-12-20T14:23:03;93837.59;;;22.10;36.65
48035;BME280;33812;46.480;6.834;2022-12-20T14:27:08;93849.44;;;22.10;36.59
48035;BME280;33812;46.480;6.834;2022-12-20T14:31:23;93837.59;;;22.10;36.56
48035;BME280;33812;46.480;6.834;2022-12-20T14:35:27;93828.50;;;22.09;36.42
48035;BME280;33812;46.480;6.834;2022-12-20T14:39:31;93833.25;;;22.09;36.22
48035;BME280;33812;46.480;6.834;2022-12-20T14:43:34;93813.44;;;22.10;35.93
48035;BME280;33812;46.480;6.834;2022-12-20T14:47:37;93821.31;;;22.12;35.68
48035;BME280;33812;46.480;6.834;2022-12-20T14:51:51;93813.09;;;22.08;35.66
48035;BME280;33812;46.480;6.834;2022-12-20T14:55:53;93824.19;;;22.08;35.61
48035;BME280;33812;46.480;6.834;2022-12-20T14:59:58;93826.53;;;22.10;35.61
48035;BME280;33812;46.480;6.834;2022-12-20T15:04:00;93822.19;;;22.09;35.04
48035;BME280;33812;46.480;6.834;2022-12-20T15:08:11;93820.31;;;22.06;35.31
48035;BME280;33812;46.480;6.834;2022-12-20T15:12:13;93815.47;;;22.10;34.86
48035;BME280;33812;46.480;6.834;2022-12-20T15:16:16;93800.06;;;22.09;34.76
48035;BME280;33812;46.480;6.834;2022-12-20T15:20:20;93809.91;;;22.10;34.97
48035;BME280;33812;46.480;6.834;2022-12-20T15:24:25;93798.84;;;22.10;35.17
48035;BME280;33812;46.480;6.834;2022-12-20T15:28:27;93803.94;;;22.12;35.45
48035;BME280;33812;46.480;6.834;2022-12-20T15:32:30;93794.75;;;22.15;35.73
48035;BME280;33812;46.480;6.834;2022-12-20T15:36:31;93793.63;;;22.12;35.94
48035;BME280;33812;46.480;6.834;2022-12-20T15:40:35;93786.22;;;22.09;36.01
48035;BME280;33812;46.480;6.834;2022-12-20T15:44:37;93807.47;;;22.12;36.27
48035;BME280;33812;46.480;6.834;2022-12-20T15:48:39;93800.63;;;22.17;35.95
48035;BME280;33812;46.480;6.834;2022-12-20T15:52:41;93792.41;;;22.13;36.57
48035;BME280;33812;46.480;6.834;2022-12-20T15:56:45;93790.28;;;22.17;36.77
48035;BME280;33812;46.480;6.834;2022-12-20T16:00:48;93786.31;;;22.18;36.85
48035;BME280;33812;46.480;6.834;2022-12-20T16:04:51;93786.31;;;22.18;36.83
48035;BME280;33812;46.480;6.834;2022-12-20T16:08:53;93780.69;;;22.22;36.97
48035;BME280;33812;46.480;6.834;2022-12-20T16:12:56;93786.53;;;22.24;36.84
48035;BME280;33812;46.480;6.834;2022-12-20T16:17:00;93778.56;;;22.26;37.89
48035;BME280;33812;46.480;6.834;2022-12-20T16:21:02;93781.31;;;22.26;37.71
48035;BME280;33812;46.480;6.834;2022-12-20T16:25:04;93782.44;;;22.29;38.21
48035;BME280;33812;46.480;6.834;2022-12-20T16:29:07;93790.75;;;22.29;38.21
48035;BME280;33812;46.480;6.834;2022-12-20T16:33:17;93793.06;;;22.30;38.33
48035;BME280;33812;46.480;6.834;2022-12-20T16:37:20;93787.97;;;22.29;38.26
48035;BME280;33812;46.480;6.834;2022-12-20T16:41:25;93788.72;;;22.29;38.33
48035;BME280;33812;46.480;6.834;2022-12-20T16:45:30;93778.88;;;22.28;38.60
48035;BME280;33812;46.480;6.834;2022-12-20T16:49:33;93775.22;;;21.53;31.03
48035;BME280;33812;46.480;6.834;2022-12-20T16:53:34;93769.28;;;21.81;33.28
48035;BME280;33812;46.480;6.834;2022-12-20T16:57:36;93762.44;;;21.98;33.49
48035;BME280;33812;46.480;6.834;2022-12-20T17:01:41;93748.38;;;22.06;33.67
48035;BME280;33812;46.480;6.834;2022-12-20T17:05:44;93765.63;;;22.10;34.52
48035;BME280;33812;46.480;6.834;2022-12-20T17:09:46;93769.50;;;22.13;35.46
48035;BME280;33812;46.480;6.834;2022-12-20T17:13:49;93775.81;;;22.13;36.04
48035;BME280;33812;46.480;6.834;2022-12-20T17:17:54;93773.81;;;22.14;36.63
48035;BME280;33812;46.480;6.834;2022-12-20T17:21:56;93774.47;;;22.18;37.16
48035;BME280;33812;46.480;6.834;2022-12-20T17:25:58;93779.56;;;22.19;37.51
48035;BME280;33812;46.480;6.834;2022-12-20T17:30:00;93774.47;;;22.18;37.76
48035;BME280;33812;46.480;6.834;2022-12-20T17:34:04;93780.34;;;22.20;38.12
48035;BME280;33812;46.480;6.834;2022-12-20T17:38:06;93778.78;;;22.19;38.18
48035;BME280;33812;46.480;6.834;2022-12-20T17:42:08;93779.91;;;22.21;38.39
48035;BME280;33812;46.480;6.834;2022-12-20T17:46:12;93780.34;;;22.20;38.49
48035;BME280;33812;46.480;6.834;2022-12-20T17:50:15;93781.88;;;22.21;38.81
48035;BME280;33812;46.480;6.834;2022-12-20T17:54:19;93779.91;;;22.21;38.85
48035;BME280;33812;46.480;6.834;2022-12-20T17:58:21;93772.25;;;22.26;38.28
48035;BME280;33812;46.480;6.834;2022-12-20T18:02:24;93784.97;;;22.23;38.26
48035;BME280;33812;46.480;6.834;2022-12-20T18:06:30;93796.16;;;22.32;40.03
48035;BME280;33812;46.480;6.834;2022-12-20T18:10:32;93802.16;;;22.31;41.94
48035;BME280;33812;46.480;6.834;2022-12-20T18:14:34;93807.69;;;22.31;41.43
48035;BME280;33812;46.480;6.834;2022-12-20T18:18:36;93800.91;;;22.32;41.59
48035;BME280;33812;46.480;6.834;2022-12-20T18:22:39;93802.47;;;22.33;42.15
48035;BME280;33812;46.480;6.834;2022-12-20T18:26:42;93790.63;;;22.32;42.00
48035;BME280;33812;46.480;6.834;2022-12-20T18:30:45;93785.09;;;22.32;41.67
48035;BME280;33812;46.480;6.834;2022-12-20T18:34:47;93785.44;;;22.34;41.54
48035;BME280;33812;46.480;6.834;2022-12-20T18:38:50;93782.72;;;21.53;29.94
48035;BME280;33812;46.480;6.834;2022-12-20T18:42:52;93773.06;;;20.25;29.35
48035;BME280;33812;46.480;6.834;2022-12-20T18:46:54;93770.72;;;20.87;30.08
48035;BME280;33812;46.480;6.834;2022-12-20T18:51:01;93776.00;;;21.54;31.34
48035;BME280;33812;46.480;6.834;2022-12-20T18:55:06;93770.59;;;21.76;32.12
48035;BME280;33812;46.480;6.834;2022-12-20T18:59:07;93759.78;;;21.82;32.29
48035;BME280;33812;46.480;6.834;2022-12-20T19:03:09;93768.63;;;21.90;33.07
48035;BME280;33812;46.480;6.834;2022-12-20T19:07:11;93769.41;;;21.90;33.76
48035;BME280;33812;46.480;6.834;2022-12-20T19:11:18;93772.81;;;21.94;34.56
48035;BME280;33812;46.480;6.834;2022-12-20T19:15:20;93771.94;;;21.97;35.69
48035;BME280;33812;46.480;6.834;2022-12-20T19:19:22;93760.00;;;22.01;36.55
48035;BME280;33812;46.480;6.834;2022-12-20T19:23:24;93766.31;;;22.01;37.18
48035;BME280;33812;46.480;6.834;2022-12-20T19:27:27;93776.94;;;22.03;37.78
48035;BME280;33812;46.480;6.834;2022-12-20T19:31:31;93768.53;;;22.06;38.04
48035;BME280;33812;46.480;6.834;2022-12-20T19:35:33;93768.06;;;22.08;38.37
48035;BME280;33812;46.480;6.834;2022-12-20T19:39:34;93777.13;;;22.08;38.45
48035;BME280;33812;46.480;6.834;2022-12-20T19:43:38;93779.59;;;22.06;38.53
48035;BME280;33812;46.480;6.834;2022-12-20T19:47:39;93793.31;;;22.10;38.90
48035;BME280;33812;46.480;6.834;2022-12-20T19:51:42;93783.00;;;22.10;39.03
48035;BME280;33812;46.480;6.834;2022-12-20T19:55:51;93783.34;;;22.13;39.12
48035;BME280;33812;46.480;6.834;2022-12-20T19:59:54;93782.56;;;22.12;39.33
48035;BME280;33812;46.480;6.834;2022-12-20T20:03:57;93791.53;;;22.16;39.09
48035;BME280;33812;46.480;6.834;2022-12-20T20:07:59;93790.00;;;22.15;39.10
48035;BME280;33812;46.480;6.834;2022-12-20T20:12:01;93802.59;;;22.16;38.73
48035;BME280;33812;46.480;6.834;2022-12-20T20:16:05;93804.91;;;22.18;38.98
48035;BME280;33812;46.480;6.834;2022-12-20T20:20:08;93802.94;;;22.18;39.20
48035;BME280;33812;46.480;6.834;2022-12-20T20:24:10;93802.59;;;22.16;38.84
48035;BME280;33812;46.480;6.834;2022-12-20T20:28:12;93807.34;;;22.16;38.49
48035;BME280;33812;46.480;6.834;2022-12-20T20:32:15;93823.84;;;22.19;38.54
48035;BME280;33812;46.480;6.834;2022-12-20T20:36:19;93825.41;;;22.20;38.11
48035;BME280;33812;46.480;6.834;2022-12-20T20:40:21;93825.41;;;22.20;39.01
48035;BME280;33812;46.480;6.834;2022-12-20T20:44:23;93823.06;;;22.19;38.64
48035;BME280;33812;46.480;6.834;2022-12-20T20:48:26;93816.00;;;22.18;38.59
48035;BME280;33812;46.480;6.834;2022-12-20T20:52:28;93820.75;;;22.17;38.57
48035;BME280;33812;46.480;6.834;2022-12-20T20:56:29;93804.47;;;22.19;38.49
48035;BME280;33812;46.480;6.834;2022-12-20T21:00:33;93790.63;;;22.19;38.43
48035;BME280;33812;46.480;6.834;2022-12-20T21:04:36;93773.25;;;22.19;38.42
48035;BME280;33812;46.480;6.834;2022-12-20T21:08:39;93775.69;;;22.17;38.13
48035;BME280;33812;46.480;6.834;2022-12-20T21:12:42;93778.03;;;22.18;38.20
48035;BME280;33812;46.480;6.834;2022-12-20T21:16:43;93770.16;;;22.17;38.20
48035;BME280;33812;46.480;6.834;2022-12-20T21:20:46;93747.13;;;22.20;38.39
48035;BME280;33812;46.480;6.834;2022-12-20T21:24:49;93759.97;;;22.14;38.17
48035;BME280;33812;46.480;6.834;2022-12-20T21:28:55;93785.22;;;22.16;38.33
48035;BME280;33812;46.480;6.834;2022-12-20T21:32:57;93804.59;;;22.16;38.15
48035;BME280;33812;46.480;6.834;2022-12-20T21:37:00;93803.50;;;22.13;38.31
48035;BME280;33812;46.480;6.834;2022-12-20T21:41:05;93806.25;;;22.13;38.35
48035;BME280;33812;46.480;6.834;2022-12-20T21:45:09;93807.47;;;22.12;37.71
48035;BME280;33812;46.480;6.834;2022-12-20T21:49:12;93798.84;;;22.10;37.45
48035;BME280;33812;46.480;6.834;2022-12-20T21:53:15;93815.47;;;22.10;37.23